createdAt,value
2023-01-11T00:00:47.600Z,5.20
2023-01-11T00:03:14.809Z,6.20
2023-01-11T00:05:42.876Z,4.85
2023-01-11T00:08:10.134Z,4.80
2023-01-11T00:10:36.847Z,5.97
2023-01-11T00:13:04.303Z,5.28
2023-01-11T00:15:31.022Z,5.00
2023-01-11T00:17:57.855Z,6.20
2023-01-11T00:20:25.094Z,6.38
2023-01-11T00:22:51.788Z,6.45
2023-01-11T00:25:18.695Z,5.80
2023-01-11T00:27:47.155Z,7.50
2023-01-11T00:30:14.030Z,5.95
2023-01-11T00:32:40.891Z,7.20
2023-01-11T00:35:08.054Z,4.80
2023-01-11T00:37:34.977Z,5.50
2023-01-11T00:40:01.392Z,5.95
2023-01-11T00:42:46.827Z,5.57
2023-01-11T00:45:31.892Z,5.88
2023-01-11T00:48:00.339Z,4.75
2023-01-11T00:50:32.761Z,6.45
2023-01-11T00:52:59.705Z,6.15
2023-01-11T00:55:26.733Z,6.00
2023-01-11T00:57:53.632Z,7.65
2023-01-11T01:00:21.605Z,6.80
2023-01-11T01:02:49.260Z,7.15
2023-01-11T01:05:16.099Z,7.60
2023-01-11T01:07:42.996Z,5.88
2023-01-11T01:10:11.531Z,5.85
2023-01-11T01:12:57.037Z,5.53
2023-01-11T01:15:23.614Z,6.70
2023-01-11T01:17:53.901Z,7.78
2023-01-11T01:20:21.177Z,6.32
2023-01-11T01:22:47.845Z,4.78
2023-01-11T01:25:14.660Z,5.78
2023-01-11T01:27:41.104Z,6.18
2023-01-11T01:30:08.240Z,5.80
2023-01-11T01:32:34.706Z,5.90
2023-01-11T01:35:01.172Z,8.82
2023-01-11T01:37:27.649Z,8.40
2023-01-11T01:39:54.095Z,7.25
2023-01-11T01:42:21.279Z,6.78
2023-01-11T01:44:58.130Z,8.68
2023-01-11T01:47:49.703Z,8.30
2023-01-11T01:50:19.828Z,8.63
2023-01-11T01:52:50.035Z,9.15
2023-01-11T01:55:22.207Z,8.30
2023-01-11T01:57:49.111Z,8.60
2023-01-11T02:00:16.029Z,8.48
2023-01-11T02:02:43.799Z,8.85
2023-01-11T02:05:11.294Z,8.50
2023-01-11T02:07:39.653Z,8.80
2023-01-11T02:10:16.794Z,8.48
2023-01-11T02:12:48.128Z,8.18
2023-01-11T02:15:16.682Z,8.32
2023-01-11T02:17:43.188Z,9.00
2023-01-11T02:20:43.730Z,8.45
2023-01-11T02:23:28.886Z,8.20
2023-01-11T02:26:32.894Z,8.02
2023-01-11T02:29:20.918Z,5.70
2023-01-11T02:32:10.849Z,6.55
2023-01-11T02:34:43.369Z,6.95
2023-01-11T02:37:29.174Z,8.35
2023-01-11T02:40:08.692Z,8.80
2023-01-11T02:42:57.872Z,6.40
2023-01-11T02:45:46.800Z,7.78
2023-01-11T02:48:18.046Z,5.70
2023-01-11T02:50:52.166Z,5.57
2023-01-11T02:53:25.432Z,7.18
2023-01-11T02:55:55.763Z,5.40
2023-01-11T02:58:24.801Z,6.55
2023-01-11T03:00:51.526Z,7.18
2023-01-11T03:03:30.406Z,7.47
2023-01-11T03:06:12.296Z,7.20
2023-01-11T03:08:50.622Z,6.72
2023-01-11T03:12:04.272Z,6.95
2023-01-11T03:14:45.284Z,7.18
2023-01-11T03:17:28.687Z,7.63
2023-01-11T03:20:01.846Z,5.43
2023-01-11T03:22:32.214Z,5.38
2023-01-11T03:25:04.421Z,5.80
2023-01-11T03:27:59.099Z,7.18
2023-01-11T03:31:00.395Z,8.50
2023-01-11T03:33:58.009Z,5.20
2023-01-11T03:36:33.173Z,6.95
2023-01-11T03:39:30.027Z,6.20
2023-01-11T03:41:59.750Z,5.05
2023-01-11T03:44:31.555Z,7.57
2023-01-11T03:47:03.001Z,5.65
2023-01-11T03:49:36.584Z,6.97
2023-01-11T03:52:05.859Z,6.05
2023-01-11T03:54:33.340Z,5.55
2023-01-11T03:57:16.732Z,5.82
2023-01-11T03:59:43.364Z,5.75
2023-01-11T04:02:21.566Z,4.68
2023-01-11T04:04:48.341Z,5.68
2023-01-11T04:07:15.379Z,5.38
2023-01-11T04:09:42.265Z,4.57
2023-01-11T04:12:08.785Z,4.93
2023-01-11T04:14:35.312Z,6.60
2023-01-11T04:17:01.773Z,4.20
2023-01-11T04:19:28.617Z,5.80
2023-01-11T04:21:55.116Z,5.70
2023-01-11T04:24:21.690Z,4.80
2023-01-11T04:26:48.399Z,5.05
2023-01-11T04:29:14.891Z,4.85
2023-01-11T04:31:41.387Z,5.53
2023-01-11T04:34:08.039Z,5.70
2023-01-11T04:36:34.494Z,5.15
2023-01-11T04:39:00.930Z,5.57
2023-01-11T04:41:46.061Z,5.05
2023-01-11T04:44:12.501Z,5.45
2023-01-11T04:46:38.944Z,5.30
2023-01-11T04:49:05.390Z,4.88
2023-01-11T04:51:31.851Z,5.40
2023-01-11T04:53:58.639Z,6.25
2023-01-11T04:56:25.162Z,4.82
2023-01-11T04:58:51.627Z,4.40
2023-01-11T05:01:18.917Z,5.10
2023-01-11T05:03:46.020Z,6.10
2023-01-11T05:06:13.121Z,5.50
2023-01-11T05:08:39.651Z,5.93
2023-01-11T05:11:08.003Z,4.95
2023-01-11T05:13:43.587Z,4.78
2023-01-11T05:16:12.032Z,5.00
2023-01-11T05:18:42.803Z,4.60
2023-01-11T05:21:10.692Z,4.13
2023-01-11T05:23:37.237Z,5.85
2023-01-11T05:26:11.448Z,4.55
2023-01-11T05:28:38.108Z,5.20
2023-01-11T05:31:04.687Z,5.97
2023-01-11T05:33:31.641Z,4.07
2023-01-11T05:36:02.045Z,3.77
2023-01-11T05:38:29.169Z,4.40
2023-01-11T05:40:59.907Z,4.38
2023-01-11T05:43:26.931Z,4.85
2023-01-11T05:45:53.697Z,4.00
2023-01-11T05:48:20.574Z,4.40
2023-01-11T05:50:51.012Z,4.97
2023-01-11T05:53:17.652Z,4.30
2023-01-11T05:55:54.610Z,4.95
2023-01-11T05:58:21.631Z,4.57
2023-01-11T06:00:52.667Z,4.78
2023-01-11T06:03:19.707Z,4.72
2023-01-11T06:05:46.856Z,5.60
2023-01-11T06:08:13.713Z,6.55
2023-01-11T06:10:40.180Z,5.53
2023-01-11T06:13:25.542Z,5.65
2023-01-11T06:16:06.342Z,5.32
2023-01-11T06:18:38.063Z,6.38
2023-01-11T06:21:05.087Z,5.18
2023-01-11T06:23:34.019Z,4.20
2023-01-11T06:26:06.139Z,4.82
2023-01-11T06:28:32.788Z,5.55
2023-01-11T06:30:59.845Z,4.28
2023-01-11T06:33:27.866Z,4.95
2023-01-11T06:35:55.173Z,5.68
2023-01-11T06:38:22.903Z,5.60
2023-01-11T06:40:54.700Z,4.38
2023-01-11T06:43:22.135Z,5.10
2023-01-11T06:45:48.992Z,5.00
2023-01-11T06:48:16.655Z,5.18
2023-01-11T06:50:43.585Z,5.60
2023-01-11T06:53:10.055Z,5.20
2023-01-11T06:55:36.557Z,5.30
2023-01-11T06:58:03.010Z,5.15
2023-01-11T07:00:29.579Z,5.00
2023-01-11T07:02:56.189Z,5.15
2023-01-11T07:05:22.674Z,4.82
2023-01-11T07:07:49.187Z,5.18
2023-01-11T07:10:16.220Z,5.00
2023-01-11T07:12:42.788Z,4.93
2023-01-11T07:15:10.736Z,4.20
2023-01-11T07:17:37.397Z,4.78
2023-01-11T07:20:05.447Z,5.60
2023-01-11T07:22:36.292Z,5.32
2023-01-11T07:25:04.661Z,5.47
2023-01-11T07:27:31.469Z,5.13
2023-01-11T07:29:59.855Z,5.30
2023-01-11T07:32:27.637Z,5.20
2023-01-11T07:34:55.098Z,4.90
2023-01-11T07:37:28.049Z,5.03
2023-01-11T07:39:55.723Z,6.32
2023-01-11T07:42:40.815Z,4.57
2023-01-11T07:45:07.918Z,5.93
2023-01-11T07:47:34.433Z,4.97
2023-01-11T07:50:00.992Z,5.63
2023-01-11T07:52:27.579Z,5.23
2023-01-11T07:54:54.023Z,5.57
2023-01-11T07:57:20.768Z,5.07
2023-01-11T07:59:47.185Z,4.90
2023-01-11T08:02:13.749Z,5.43
2023-01-11T08:04:40.298Z,5.90
2023-01-11T08:07:06.850Z,4.75
2023-01-11T08:09:33.279Z,4.85
2023-01-11T08:12:18.683Z,5.53
2023-01-11T08:14:45.390Z,4.67
2023-01-11T08:17:14.042Z,5.17
2023-01-11T08:19:41.366Z,5.85
2023-01-11T08:22:08.032Z,4.25
2023-01-11T08:24:34.964Z,5.60
2023-01-11T08:27:04.814Z,5.53
2023-01-11T08:29:31.725Z,4.17
2023-01-11T08:31:59.542Z,3.90
2023-01-11T08:34:28.937Z,4.17
2023-01-11T08:37:01.960Z,4.07
2023-01-11T08:39:31.992Z,4.17
2023-01-11T08:41:59.480Z,4.43
2023-01-11T08:44:33.636Z,4.83
2023-01-11T08:47:01.352Z,4.28
2023-01-11T08:49:27.837Z,4.28
2023-01-11T08:51:54.294Z,4.30
2023-01-11T08:54:20.764Z,3.90
2023-01-11T08:56:47.214Z,4.10
2023-01-11T08:59:13.797Z,4.45
2023-01-11T09:01:40.369Z,3.83
2023-01-11T09:04:15.761Z,4.20
2023-01-11T09:06:49.860Z,5.00
2023-01-11T09:09:16.869Z,3.90
2023-01-11T09:11:56.529Z,3.90
2023-01-11T09:14:27.244Z,4.40
2023-01-11T09:16:54.753Z,3.40
2023-01-11T09:19:21.845Z,4.10
2023-01-11T09:21:48.711Z,3.43
2023-01-11T09:24:15.246Z,3.57
2023-01-11T09:26:43.433Z,4.20
2023-01-11T09:29:11.318Z,4.50
2023-01-11T09:31:37.968Z,3.93
2023-01-11T09:34:05.381Z,3.70
2023-01-11T09:36:32.975Z,4.37
2023-01-11T09:39:02.114Z,3.07
2023-01-11T09:42:00.762Z,3.23
2023-01-11T09:44:29.750Z,3.63
2023-01-11T09:47:05.470Z,3.60
2023-01-11T09:49:38.419Z,3.70
2023-01-11T09:52:24.998Z,3.80
2023-01-11T09:54:52.015Z,3.40
2023-01-11T09:57:24.633Z,2.73
2023-01-11T10:00:01.509Z,3.60
2023-01-11T10:02:59.986Z,2.63
2023-01-11T10:05:51.339Z,3.60
2023-01-11T10:18:27.593Z,3.03
2023-01-11T10:18:30.654Z,3.37
2023-01-11T10:20:47.575Z,3.10
2023-01-11T10:23:15.145Z,3.60
2023-01-11T10:25:51.704Z,2.73
2023-01-11T10:28:25.726Z,3.30
2023-01-11T10:30:58.700Z,2.80
2023-01-11T10:33:42.566Z,3.60
2023-01-11T10:36:33.002Z,3.50
2023-01-11T10:39:17.562Z,4.10
2023-01-11T10:42:02.316Z,3.53
2023-01-11T10:44:37.033Z,3.37
2023-01-11T10:47:05.424Z,3.33
2023-01-11T10:49:44.106Z,3.03
2023-01-11T10:52:29.303Z,3.27
2023-01-11T10:54:57.548Z,3.37
2023-01-11T10:57:37.317Z,2.83
2023-01-11T11:00:13.653Z,3.10
2023-01-11T11:03:02.929Z,3.33
2023-01-11T11:05:42.736Z,2.53
2023-01-11T11:08:48.454Z,2.80
2023-01-11T11:11:34.515Z,3.07
2023-01-11T11:14:07.325Z,3.10
2023-01-11T11:16:52.307Z,2.60
2023-01-11T11:19:25.564Z,2.20
2023-01-11T11:21:52.605Z,2.77
2023-01-11T11:24:32.970Z,2.40
2023-01-11T11:27:23.437Z,3.07
2023-01-11T11:29:55.548Z,2.50
2023-01-11T11:32:29.093Z,2.50
2023-01-11T11:34:55.754Z,2.67
2023-01-11T11:37:33.074Z,2.63
2023-01-11T11:39:59.769Z,2.20
2023-01-11T11:42:26.746Z,2.17
2023-01-11T11:45:11.799Z,2.50
2023-01-11T11:47:38.446Z,2.90
2023-01-11T11:50:42.018Z,3.37
2023-01-11T11:53:07.095Z,3.03
2023-01-11T11:55:35.023Z,2.70
2023-01-11T11:58:08.439Z,2.57
2023-01-11T12:00:41.666Z,2.83
2023-01-11T12:03:15.587Z,2.90
2023-01-11T12:05:53.547Z,2.50
2023-01-11T12:08:21.494Z,2.90
2023-01-11T12:10:51.344Z,3.10
2023-01-11T12:13:38.760Z,3.00
2023-01-11T12:16:23.019Z,3.20
2023-01-11T12:18:49.732Z,2.47
2023-01-11T12:21:16.168Z,2.67
2023-01-11T12:23:42.817Z,3.07
2023-01-11T12:26:14.854Z,3.17
2023-01-11T12:28:51.233Z,3.67
2023-01-11T12:31:36.491Z,3.47
2023-01-11T12:34:30.495Z,3.63
2023-01-11T12:37:39.696Z,3.00
2023-01-11T12:40:27.935Z,2.93
2023-01-11T12:43:13.126Z,3.50
2023-01-11T12:46:10.209Z,2.77
2023-01-11T12:49:09.779Z,2.77
2023-01-11T12:52:03.480Z,2.47
2023-01-11T12:54:42.104Z,2.60
2023-01-11T12:57:27.600Z,2.63
2023-01-11T13:00:12.350Z,2.47
2023-01-11T13:03:16.497Z,2.67
2023-01-11T13:06:13.068Z,2.70
2023-01-11T13:08:57.410Z,2.63
2023-01-11T13:11:54.953Z,2.53
2023-01-11T13:14:51.992Z,2.23
2023-01-11T13:17:21.107Z,2.63
2023-01-11T13:20:01.791Z,2.40
2023-01-11T13:22:30.612Z,2.30
2023-01-11T13:24:58.492Z,2.87
2023-01-11T13:27:26.249Z,2.30
2023-01-11T13:29:55.735Z,1.93
2023-01-11T13:32:36.409Z,2.40
2023-01-11T13:35:15.461Z,2.20
2023-01-11T13:37:52.319Z,2.00
2023-01-11T13:40:26.437Z,2.20
2023-01-11T13:43:19.799Z,2.80
2023-01-11T13:45:59.061Z,2.43
2023-01-11T13:48:29.817Z,3.40
2023-01-11T13:51:10.575Z,3.10
2023-01-11T13:54:09.360Z,3.23
2023-01-11T13:56:39.971Z,3.60
2023-01-11T13:59:22.352Z,3.23
2023-01-11T14:01:55.831Z,3.50
2023-01-11T14:04:27.529Z,3.70
2023-01-11T14:07:04.605Z,3.83
2023-01-11T14:10:01.577Z,2.87
2023-01-11T14:13:05.394Z,2.43
2023-01-11T14:15:55.242Z,3.17
2023-01-11T14:18:31.139Z,2.70
2023-01-11T14:21:22.497Z,2.60
2023-01-11T14:23:53.213Z,2.83
2023-01-11T14:26:26.835Z,3.30
2023-01-11T14:29:08.724Z,2.97
2023-01-11T14:31:53.971Z,3.23
2023-01-11T14:34:32.674Z,3.43
2023-01-11T14:37:34.319Z,3.03
2023-01-11T14:40:19.412Z,3.20
2023-01-11T14:43:22.974Z,3.23
2023-01-11T14:46:03.922Z,3.40
2023-01-11T14:49:01.492Z,3.10
2023-01-11T14:51:51.624Z,3.40
2023-01-11T14:54:27.103Z,3.60
2023-01-11T14:56:57.934Z,3.80
2023-01-11T14:59:30.612Z,3.77
2023-01-11T15:02:03.102Z,3.37
2023-01-11T15:04:58.914Z,3.73
2023-01-11T15:07:31.356Z,4.23
2023-01-11T15:09:59.989Z,4.03
2023-01-11T15:12:54.777Z,4.10
2023-01-11T15:15:21.607Z,3.70
2023-01-11T15:18:14.304Z,3.90
2023-01-11T15:20:57.661Z,4.00
2023-01-11T15:23:24.615Z,5.00
2023-01-11T15:26:00.678Z,4.90
2023-01-11T15:28:42.904Z,5.73
2023-01-11T15:31:34.248Z,5.33
2023-01-11T15:34:31.939Z,4.80
2023-01-11T15:37:02.242Z,5.23
2023-01-11T15:39:47.308Z,4.80
2023-01-11T15:42:32.775Z,4.77
2023-01-11T15:45:32.091Z,4.20
2023-01-11T15:48:20.079Z,4.40
2023-01-11T15:51:08.557Z,4.17
2023-01-11T15:53:50.600Z,4.70
2023-01-11T15:57:05.183Z,4.93
2023-01-11T15:59:55.777Z,4.53
2023-01-11T16:02:40.464Z,5.37
2023-01-11T16:05:25.939Z,5.63
2023-01-11T16:08:22.920Z,5.90
2023-01-11T16:11:01.713Z,4.83
2023-01-11T16:13:54.668Z,5.00
2023-01-11T16:16:26.730Z,4.37
2023-01-11T16:18:56.301Z,5.73
2023-01-11T16:21:33.574Z,5.10
2023-01-11T16:24:02.287Z,5.10
2023-01-11T16:26:29.067Z,4.83
2023-01-11T16:28:57.455Z,5.77
2023-01-11T16:31:25.341Z,6.73
2023-01-11T16:33:53.229Z,5.60
2023-01-11T16:36:21.977Z,5.50
2023-01-11T16:39:06.186Z,5.43
2023-01-11T16:41:41.016Z,6.80
2023-01-11T16:44:08.879Z,5.60
2023-01-11T16:46:47.476Z,6.20
2023-01-11T16:49:18.081Z,6.30
2023-01-11T16:51:45.400Z,5.27
2023-01-11T16:54:21.210Z,5.70
2023-01-11T16:56:48.856Z,6.30
2023-01-11T16:59:15.365Z,5.80
2023-01-11T17:01:56.333Z,6.77
2023-01-11T17:04:29.309Z,5.27
2023-01-11T17:06:57.216Z,5.67
2023-01-11T17:09:25.807Z,6.27
2023-01-11T17:11:52.702Z,5.73
2023-01-11T17:14:46.497Z,6.13
2023-01-11T17:17:13.180Z,4.70
2023-01-11T17:19:45.743Z,5.87
2023-01-11T17:22:18.632Z,4.60
2023-01-11T17:24:52.107Z,6.40
2023-01-11T17:27:22.783Z,5.20
2023-01-11T17:29:50.377Z,4.97
2023-01-11T17:32:22.533Z,5.00
2023-01-11T17:34:50.057Z,5.00
2023-01-11T17:37:17.526Z,5.60
2023-01-11T17:39:54.933Z,5.33
2023-01-11T17:42:40.525Z,5.10
2023-01-11T17:45:20.730Z,6.60
2023-01-11T17:47:49.962Z,5.33
2023-01-11T17:50:21.074Z,5.33
2023-01-11T17:52:54.713Z,7.03
2023-01-11T17:55:25.313Z,6.57
2023-01-11T17:58:21.106Z,6.70
2023-01-11T18:01:13.966Z,5.63
2023-01-11T18:03:44.347Z,6.17
2023-01-11T18:06:27.774Z,6.20
2023-01-11T18:08:56.312Z,6.13
2023-01-11T18:11:31.388Z,7.20
2023-01-11T18:14:00.146Z,6.20
2023-01-11T18:16:27.054Z,6.10
2023-01-11T18:18:54.205Z,7.27
2023-01-11T18:21:26.446Z,7.20
2023-01-11T18:24:10.884Z,7.40
2023-01-11T18:26:38.220Z,6.63
2023-01-11T18:29:05.236Z,6.90
2023-01-11T18:31:32.429Z,7.07
2023-01-11T18:34:05.653Z,7.57
2023-01-11T18:36:32.114Z,7.30
2023-01-11T18:38:58.567Z,8.47
2023-01-11T18:41:44.836Z,7.57
2023-01-11T18:44:11.966Z,8.20
2023-01-11T18:46:38.408Z,8.93
2023-01-11T18:49:04.867Z,8.50
2023-01-11T18:51:35.979Z,9.00
2023-01-11T18:54:02.445Z,9.40
2023-01-11T18:56:28.900Z,8.50
2023-01-11T18:58:55.336Z,11.03
2023-01-11T19:01:21.890Z,9.40
2023-01-11T19:03:48.903Z,10.87
2023-01-11T19:06:19.231Z,10.10
2023-01-11T19:08:45.747Z,11.00
2023-01-11T19:11:13.881Z,10.07
2023-01-11T19:13:40.337Z,10.77
2023-01-11T19:16:07.393Z,11.27
2023-01-11T19:18:35.297Z,10.23
2023-01-11T19:21:03.381Z,11.20
2023-01-11T19:23:29.833Z,10.43
2023-01-11T19:26:02.357Z,10.37
2023-01-11T19:28:29.094Z,10.40
2023-01-11T19:30:55.692Z,11.40
2023-01-11T19:33:22.305Z,10.70
2023-01-11T19:35:51.298Z,10.70
2023-01-11T19:38:19.078Z,11.37
2023-01-11T19:40:46.124Z,12.00
2023-01-11T19:43:12.872Z,11.20
2023-01-11T19:45:41.027Z,11.77
2023-01-11T19:48:07.611Z,11.17
2023-01-11T19:50:34.052Z,11.40
2023-01-11T19:53:00.502Z,12.07
2023-01-11T19:55:26.967Z,11.37
2023-01-11T19:57:53.515Z,12.13
2023-01-11T20:00:20.593Z,11.73
2023-01-11T20:02:47.195Z,10.40
2023-01-11T20:05:14.111Z,11.33
2023-01-11T20:07:40.570Z,13.10
2023-01-11T20:10:07.362Z,10.50
2023-01-11T20:12:33.852Z,12.87
2023-01-11T20:15:03.437Z,11.20
2023-01-11T20:17:29.928Z,13.60
2023-01-11T20:19:56.389Z,13.30
2023-01-11T20:22:25.979Z,12.40
2023-01-11T20:24:52.492Z,13.27
2023-01-11T20:27:19.052Z,11.70
2023-01-11T20:29:45.727Z,12.73
2023-01-11T20:32:35.081Z,12.83
2023-01-11T20:34:58.603Z,13.57
2023-01-11T20:37:25.043Z,12.80
2023-01-11T20:39:51.502Z,11.50
2023-01-11T20:42:18.001Z,16.00
2023-01-11T20:44:44.460Z,15.33
2023-01-11T20:47:10.912Z,14.87
2023-01-11T20:49:37.452Z,13.33
2023-01-11T20:52:04.238Z,11.30
2023-01-11T20:54:30.863Z,14.80
2023-01-11T20:57:02.009Z,14.33
2023-01-11T20:59:28.601Z,12.87
2023-01-11T21:01:55.097Z,15.70
2023-01-11T21:04:21.632Z,18.13
2023-01-11T21:06:48.497Z,16.47
2023-01-11T21:09:16.757Z,16.70
2023-01-11T21:11:44.169Z,14.70
2023-01-11T21:14:13.419Z,14.00
2023-01-11T21:16:41.390Z,13.90
2023-01-11T21:19:10.252Z,14.53
2023-01-11T21:21:36.709Z,16.00
2023-01-11T21:24:04.039Z,13.10
2023-01-11T21:26:31.642Z,13.63
2023-01-11T21:28:59.904Z,11.60
2023-01-11T21:31:31.322Z,13.43
2023-01-11T21:33:58.275Z,12.37
2023-01-11T21:36:26.428Z,13.97
2023-01-11T21:38:54.260Z,12.50
2023-01-11T21:41:42.892Z,11.77
2023-01-11T21:44:10.229Z,12.77
2023-01-11T21:46:37.000Z,12.97
2023-01-11T21:49:03.759Z,12.13
2023-01-11T21:51:30.326Z,11.80
2023-01-11T21:53:57.710Z,13.03
2023-01-11T21:56:24.494Z,10.60
2023-01-11T21:58:51.065Z,13.97
2023-01-11T22:01:21.773Z,11.73
2023-01-11T22:03:48.835Z,12.10
2023-01-11T22:06:16.031Z,11.10
2023-01-11T22:08:46.559Z,12.43
2023-01-11T22:11:15.519Z,11.73
2023-01-11T22:13:42.125Z,13.10
2023-01-11T22:16:17.194Z,12.17
2023-01-11T22:18:44.725Z,13.77
2023-01-11T22:21:12.320Z,11.10
2023-01-11T22:23:39.057Z,11.80
2023-01-11T22:26:07.095Z,13.80
2023-01-11T22:28:53.575Z,13.07
2023-01-11T22:31:20.730Z,12.90
2023-01-11T22:33:47.575Z,11.00
2023-01-11T22:36:14.728Z,12.80
2023-01-11T22:38:41.705Z,12.40
2023-01-11T22:41:08.477Z,11.70
2023-01-11T22:43:34.956Z,12.53
2023-01-11T22:46:01.653Z,11.70
2023-01-11T22:48:28.631Z,10.77
2023-01-11T22:50:55.234Z,12.03
2023-01-11T22:53:21.813Z,11.10
2023-01-11T22:55:48.292Z,10.50
2023-01-11T22:58:14.740Z,10.00
2023-01-11T23:00:41.351Z,10.47
2023-01-11T23:03:07.932Z,11.27
2023-01-11T23:05:34.463Z,12.73
2023-01-11T23:08:01.059Z,11.57
2023-01-11T23:10:27.521Z,10.63
2023-01-11T23:13:12.729Z,11.33
2023-01-11T23:15:39.644Z,11.30
2023-01-11T23:18:07.176Z,11.30
2023-01-11T23:20:34.474Z,12.10
2023-01-11T23:23:00.972Z,11.90
2023-01-11T23:25:27.468Z,11.33
2023-01-11T23:27:53.911Z,10.80
2023-01-11T23:30:20.524Z,11.33
2023-01-11T23:32:47.003Z,10.13
2023-01-11T23:35:13.521Z,9.53
2023-01-11T23:37:39.971Z,10.30
2023-01-11T23:40:07.171Z,10.10
2023-01-11T23:42:35.384Z,11.50
2023-01-11T23:45:01.869Z,9.97
2023-01-11T23:47:29.807Z,10.90
2023-01-11T23:50:00.833Z,9.90
2023-01-11T23:52:30.156Z,9.70
2023-01-11T23:54:56.964Z,9.50
2023-01-11T23:57:24.832Z,9.53
2023-01-11T23:59:51.521Z,8.60
